Time;durP1;ratioP1;P1;durP2;ratioP2;P2;SDS_P1;SDS_P2;PMS_P1;PMS_P2;Temp;Humidity;BMP_temperature;BMP_pressure;BME280_temperature;BME280_humidity;BME280_pressure;Samples;Min_cycle;Max_cycle;Signal;HPM_P1;HPM_P2
2022/09/04 00:01:07;;;;;;;;;;;18.50;60.80;;;;;;5034059;28;19929;-83
2022/09/04 00:03:53;;;;;;;;;;;18.50;61.00;;;;;;5017480;28;19924;-84
2022/09/04 00:06:22;;;;;;;;;;;18.40;60.80;;;;;;5032174;28;19925;-84
2022/09/04 00:08:57;;;;;;;;;;;18.40;61.10;;;;;;5017728;28;19921;-83
2022/09/04 00:11:28;;;;;;;;;;;18.40;61.30;;;;;;5033728;28;20010;-84
2022/09/04 00:14:09;;;;;;;;;;;18.30;61.90;;;;;;5033998;28;19925;-83
2022/09/04 00:16:57;;;;;;;;;;;18.30;61.80;;;;;;5033371;28;19921;-83
2022/09/04 00:19:25;;;;;;;;;;;18.20;61.60;;;;;;5034050;28;19932;-84
2022/09/04 00:21:55;;;;;;;;;;;18.30;61.70;;;;;;5024900;28;19968;-83
2022/09/04 00:24:22;;;;;;;;;;;18.20;62.20;;;;;;5051416;28;19921;-83
2022/09/04 00:26:51;;;;;;;;;;;18.20;62.20;;;;;;5052886;28;20015;-83
2022/09/04 00:29:20;;;;;;;;;;;18.10;62.30;;;;;;5034817;28;19925;-83
2022/09/04 00:31:55;;;;;;;;;;;18.10;62.40;;;;;;5051008;28;20378;-83
2022/09/04 00:34:44;;;;;;;;;;;18.10;62.30;;;;;;5051334;28;19925;-84
2022/09/04 00:37:13;;;;;;;;;;;18.00;63.10;;;;;;5052737;28;19921;-83
2022/09/04 00:39:42;;;;;;;;;;;18.00;62.50;;;;;;5052117;28;19924;-84
2022/09/04 00:42:27;;;;;;;;;;;18.00;63.20;;;;;;5051359;28;20452;-83
2022/09/04 00:45:11;;;;;;;;;;;17.90;63.60;;;;;;5051184;28;20298;-84
2022/09/04 00:47:42;;;;;;;;;;;17.90;63.30;;;;;;5050931;28;19928;-83
2022/09/04 00:50:27;;;;;;;;;;;17.90;63.60;;;;;;5050580;28;19930;-83
2022/09/04 00:53:08;;;;;;;;;;;17.90;64.20;;;;;;5050825;28;20393;-84
2022/09/04 00:55:52;;;;;;;;;;;17.80;64.50;;;;;;5050845;28;20015;-83
2022/09/04 00:58:51;;;;;;;;;;;17.80;64.90;;;;;;5050760;28;20011;-84
2022/09/04 01:01:26;;;;;;;;;;;17.70;64.60;;;;;;5032296;28;19921;-83
2022/09/04 01:04:10;;;;;;;;;;;17.70;65.20;;;;;;5033333;28;19975;-83
2022/09/04 01:06:47;;;;;;;;;;;17.70;65.20;;;;;;5033126;28;19955;-83
2022/09/04 01:09:30;;;;;;;;;;;17.60;65.00;;;;;;5032692;28;19925;-84
2022/09/04 01:12:01;;;;;;;;;;;17.60;65.20;;;;;;5016326;28;20416;-83
2022/09/04 01:14:28;;;;;;;;;;;17.60;65.00;;;;;;5032680;28;19932;-84
2022/09/04 01:17:16;;;;;;;;;;;17.50;66.10;;;;;;5015896;28;19921;-84
2022/09/04 01:19:42;;;;;;;;;;;17.50;66.60;;;;;;5024938;28;20437;-84
2022/09/04 01:22:15;;;;;;;;;;;17.50;66.50;;;;;;5032547;28;19920;-84
2022/09/04 01:24:48;;;;;;;;;;;17.40;67.50;;;;;;5015823;28;19971;-84
2022/09/04 01:27:28;;;;;;;;;;;17.40;67.20;;;;;;5032798;28;19921;-84
2022/09/04 01:30:06;;;;;;;;;;;17.40;66.50;;;;;;5016624;28;20370;-83
2022/09/04 01:32:39;;;;;;;;;;;17.30;66.50;;;;;;5032371;28;19920;-83
2022/09/04 01:35:16;;;;;;;;;;;17.30;67.00;;;;;;5015947;28;19925;-83
2022/09/04 01:38:00;;;;;;;;;;;17.20;67.10;;;;;;5047074;28;19927;-83
2022/09/04 01:40:28;;;;;;;;;;;17.20;68.10;;;;;;5050389;28;20011;-83
2022/09/04 01:43:06;;;;;;;;;;;17.20;67.80;;;;;;5050154;28;20441;-83
2022/09/04 01:45:50;;;;;;;;;;;17.10;67.90;;;;;;5049996;28;19932;-83
2022/09/04 01:48:18;;;;;;;;;;;17.10;68.00;;;;;;5049675;28;19921;-83
2022/09/04 01:50:46;;;;;;;;;;;17.00;69.00;;;;;;5033609;28;19967;-83
2022/09/04 01:53:16;;;;;;;;;;;17.00;68.60;;;;;;5049680;28;19920;-83
2022/09/04 01:55:42;;;;;;;;;;;16.90;69.30;;;;;;5049776;28;19924;-83
2022/09/04 01:58:26;;;;;;;;;;;16.90;69.70;;;;;;5050234;28;20007;-83
2022/09/04 02:00:58;;;;;;;;;;;16.80;70.00;;;;;;5049690;28;19947;-83
2022/09/04 02:03:30;;;;;;;;;;;16.80;71.30;;;;;;5053952;28;20378;-83
2022/09/04 02:06:00;;;;;;;;;;;16.80;70.90;;;;;;5054180;28;19974;-83
2022/09/04 02:08:48;;;;;;;;;;;16.80;71.50;;;;;;5053948;28;19927;-83
2022/09/04 02:11:18;;;;;;;;;;;16.70;71.80;;;;;;5053604;28;20598;-83
2022/09/04 02:13:55;;;;;;;;;;;16.70;72.40;;;;;;5037693;28;19968;-83
2022/09/04 02:16:20;;;;;;;;;;;16.70;72.70;;;;;;5053787;28;19921;-83
2022/09/04 02:18:56;;;;;;;;;;;16.60;73.80;;;;;;5054063;28;19927;-83
2022/09/04 02:21:40;;;;;;;;;;;16.60;73.70;;;;;;5055027;28;19957;-83
2022/09/04 02:24:08;;;;;;;;;;;16.50;73.50;;;;;;5053676;28;20291;-83
2022/09/04 02:26:42;;;;;;;;;;;16.60;74.00;;;;;;5053961;28;19927;-83
2022/09/04 02:29:08;;;;;;;;;;;16.50;74.50;;;;;;5053922;28;19921;-83
2022/09/04 02:31:51;;;;;;;;;;;16.50;75.10;;;;;;5053311;28;19921;-83
2022/09/04 02:34:26;;;;;;;;;;;16.50;76.60;;;;;;5053558;28;19928;-83
2022/09/04 02:36:55;;;;;;;;;;;16.40;75.50;;;;;;5053684;28;19921;-83
2022/09/04 02:39:35;;;;;;;;;;;16.40;76.40;;;;;;5053476;28;19920;-83
2022/09/04 02:42:04;;;;;;;;;;;16.40;76.00;;;;;;5053352;28;20404;-83
2022/09/04 02:45:05;;;;;;;;;;;16.30;77.60;;;;;;5054280;28;19921;-83
2022/09/04 02:47:50;;;;;;;;;;;16.30;77.10;;;;;;5035658;28;19928;-83
2022/09/04 02:50:38;;;;;;;;;;;16.20;78.70;;;;;;5035473;28;19968;-83
2022/09/04 02:53:18;;;;;;;;;;;16.20;80.00;;;;;;5034744;28;20436;-83
2022/09/04 02:56:07;;;;;;;;;;;16.10;79.80;;;;;;5035502;28;19928;-83
2022/09/04 02:58:51;;;;;;;;;;;16.20;80.10;;;;;;5052138;28;19946;-83
2022/09/04 03:01:26;;;;;;;;;;;16.10;80.10;;;;;;5034728;28;19921;-83
2022/09/04 03:04:09;;;;;;;;;;;16.10;81.70;;;;;;5019172;28;19920;-83
2022/09/04 03:06:52;;;;;;;;;;;16.00;84.00;;;;;;5018409;28;19921;-83
2022/09/04 03:09:27;;;;;;;;;;;16.00;84.60;;;;;;5035318;28;19931;-83
2022/09/04 03:12:13;;;;;;;;;;;16.00;86.00;;;;;;5034742;28;20046;-83
2022/09/04 03:14:45;;;;;;;;;;;16.00;83.50;;;;;;5021221;28;19925;-83
2022/09/04 03:17:26;;;;;;;;;;;15.90;82.90;;;;;;5035422;28;20360;-83
2022/09/04 03:19:56;;;;;;;;;;;15.90;84.00;;;;;;5034821;28;20417;-83
2022/09/04 03:22:27;;;;;;;;;;;15.90;85.10;;;;;;5049002;28;20394;-83
2022/09/04 03:25:22;;;;;;;;;;;15.90;86.80;;;;;;5052716;28;19970;-83
2022/09/04 03:27:48;;;;;;;;;;;15.90;85.60;;;;;;5053127;28;19921;-83
2022/09/04 03:30:13;;;;;;;;;;;15.80;85.20;;;;;;5052184;28;20401;-83
2022/09/04 03:32:45;;;;;;;;;;;15.80;86.80;;;;;;5052634;28;19925;-83
2022/09/04 03:35:19;;;;;;;;;;;15.80;89.60;;;;;;5052425;28;20374;-83
2022/09/04 03:37:54;;;;;;;;;;;15.80;87.30;;;;;;5035640;28;19920;-83
2022/09/04 03:40:32;;;;;;;;;;;15.80;88.80;;;;;;5052582;28;20007;-83
2022/09/04 03:43:00;;;;;;;;;;;15.70;90.20;;;;;;5052258;28;19920;-83
2022/09/04 03:45:29;;;;;;;;;;;15.70;90.90;;;;;;5052505;28;20435;-83
2022/09/04 03:48:04;;;;;;;;;;;15.70;90.00;;;;;;5035609;28;19920;-83
2022/09/04 03:50:33;;;;;;;;;;;15.70;89.40;;;;;;5052384;28;20425;-83
2022/09/04 03:53:13;;;;;;;;;;;15.70;91.90;;;;;;5035077;28;19920;-83
2022/09/04 03:55:56;;;;;;;;;;;15.70;90.40;;;;;;5052069;28;20408;-83
2022/09/04 03:58:27;;;;;;;;;;;15.60;90.00;;;;;;5052016;28;19947;-83
2022/09/04 04:00:59;;;;;;;;;;;15.60;92.20;;;;;;5051906;28;19990;-83
2022/09/04 04:03:38;;;;;;;;;;;15.60;92.40;;;;;;5035576;28;19969;-83
2022/09/04 04:06:04;;;;;;;;;;;15.60;91.80;;;;;;5051714;28;19932;-83
2022/09/04 04:08:50;;;;;;;;;;;15.60;93.00;;;;;;5052019;28;19921;-83
2022/09/04 04:11:28;;;;;;;;;;;15.50;92.00;;;;;;5038762;28;20271;-83
2022/09/04 04:13:53;;;;;;;;;;;15.60;92.80;;;;;;5015394;28;20379;-83
2022/09/04 04:16:29;;;;;;;;;;;15.50;93.50;;;;;;5031641;28;19929;-83
2022/09/04 04:19:09;;;;;;;;;;;15.50;93.80;;;;;;5031853;28;19925;-83
2022/09/04 04:21:38;;;;;;;;;;;15.50;93.30;;;;;;5031311;28;19928;-83
2022/09/04 04:24:27;;;;;;;;;;;15.50;94.10;;;;;;5014434;28;19928;-83
2022/09/04 04:26:53;;;;;;;;;;;15.40;94.40;;;;;;5015353;28;19925;-83
2022/09/04 04:29:37;;;;;;;;;;;15.40;95.30;;;;;;5031363;28;19944;-83
2022/09/04 04:32:23;;;;;;;;;;;15.40;94.00;;;;;;5031318;28;19940;-83
2022/09/04 04:34:57;;;;;;;;;;;15.30;95.90;;;;;;5031128;28;20378;-83
2022/09/04 04:37:35;;;;;;;;;;;15.30;94.60;;;;;;5014821;28;19928;-83
2022/09/04 04:40:03;;;;;;;;;;;15.30;94.50;;;;;;5031584;28;19928;-83
2022/09/04 04:42:34;;;;;;;;;;;15.30;95.30;;;;;;5014652;28;19925;-83
2022/09/04 04:48:24;;;;;;;;;;;15.20;95.20;;;;;;5031290;28;19921;-83
2022/09/04 04:51:08;;;;;;;;;;;15.20;96.20;;;;;;5030923;28;20382;-83
2022/09/04 04:53:34;;;;;;;;;;;15.20;95.30;;;;;;5031106;28;19925;-83
2022/09/04 04:56:35;;;;;;;;;;;15.20;95.80;;;;;;5014413;28;19929;-83
2022/09/04 04:59:06;;;;;;;;;;;15.20;95.90;;;;;;5012932;28;20533;-83
2022/09/04 05:01:32;;;;;;;;;;;15.10;95.80;;;;;;5027083;28;19928;-83
2022/09/04 05:04:05;;;;;;;;;;;15.10;96.70;;;;;;5014599;28;19925;-82
2022/09/04 05:06:49;;;;;;;;;;;15.10;97.70;;;;;;5014174;28;20383;-83
2022/09/04 05:09:33;;;;;;;;;;;15.10;97.40;;;;;;5030890;28;19925;-83
2022/09/04 05:12:09;;;;;;;;;;;15.10;97.90;;;;;;5030690;28;19928;-83
2022/09/04 05:14:53;;;;;;;;;;;15.10;97.50;;;;;;5030183;28;19925;-83
2022/09/04 05:17:18;;;;;;;;;;;15.10;97.80;;;;;;5032090;28;19928;-83
2022/09/04 05:20:03;;;;;;;;;;;15.10;97.90;;;;;;5030459;28;19921;-82
2022/09/04 05:22:33;;;;;;;;;;;15.10;98.10;;;;;;5014197;28;19921;-83
2022/09/04 05:25:01;;;;;;;;;;;15.10;97.90;;;;;;5030289;28;19960;-83
2022/09/04 05:27:33;;;;;;;;;;;15.10;98.50;;;;;;5030471;28;19921;-83
2022/09/04 05:29:58;;;;;;;;;;;15.20;98.20;;;;;;5031018;28;20053;-83
2022/09/04 05:32:34;;;;;;;;;;;15.20;98.10;;;;;;5030233;28;20326;-83
2022/09/04 05:35:05;;;;;;;;;;;15.20;98.40;;;;;;5030169;28;19925;-83
2022/09/04 05:37:41;;;;;;;;;;;15.20;97.90;;;;;;5013993;28;19966;-83
2022/09/04 05:40:19;;;;;;;;;;;15.20;97.60;;;;;;5030898;28;20024;-83
2022/09/04 05:42:56;;;;;;;;;;;15.30;98.50;;;;;;5029799;28;19921;-83
2022/09/04 05:45:28;;;;;;;;;;;15.30;98.90;;;;;;5030805;28;19964;-83
2022/09/04 05:48:07;;;;;;;;;;;15.30;98.50;;;;;;5029936;28;20020;-83
2022/09/04 05:50:35;;;;;;;;;;;15.40;98.40;;;;;;5030433;28;20357;-83
2022/09/04 05:53:16;;;;;;;;;;;15.40;97.70;;;;;;5013674;28;19921;-82
2022/09/04 05:55:42;;;;;;;;;;;15.40;96.50;;;;;;5013471;28;19929;-83
2022/09/04 05:58:21;;;;;;;;;;;15.40;98.30;;;;;;5030303;28;19927;-83
2022/09/04 06:01:05;;;;;;;;;;;15.50;97.20;;;;;;5031581;28;19921;-83
2022/09/04 06:03:44;;;;;;;;;;;15.60;97.60;;;;;;5030006;28;19929;-83
2022/09/04 06:06:18;;;;;;;;;;;15.60;97.30;;;;;;5030051;28;19921;-83
2022/09/04 06:08:50;;;;;;;;;;;15.60;98.50;;;;;;5030435;28;20286;-83
2022/09/04 06:11:32;;;;;;;;;;;15.70;97.80;;;;;;5013697;28;20421;-82
2022/09/04 06:14:18;;;;;;;;;;;15.70;97.50;;;;;;5013443;28;19928;-83
2022/09/04 06:16:52;;;;;;;;;;;15.80;98.10;;;;;;5030044;28;20395;-83
2022/09/04 06:19:37;;;;;;;;;;;15.80;97.80;;;;;;5029785;28;19931;-83
2022/09/04 06:22:14;;;;;;;;;;;15.80;97.80;;;;;;5013543;28;20358;-83
2022/09/04 06:24:59;;;;;;;;;;;15.90;98.30;;;;;;5030261;28;20264;-83
2022/09/04 06:27:38;;;;;;;;;;;15.90;99.50;;;;;;5029577;28;19927;-83
2022/09/04 06:30:06;;;;;;;;;;;16.00;98.20;;;;;;5030105;28;19925;-83
2022/09/04 06:32:41;;;;;;;;;;;16.00;98.00;;;;;;5029616;28;19929;-82
2022/09/04 06:35:25;;;;;;;;;;;16.10;98.10;;;;;;5029451;28;19932;-83
2022/09/04 06:38:16;;;;;;;;;;;16.10;97.90;;;;;;5029889;28;19928;-83
2022/09/04 06:40:41;;;;;;;;;;;16.20;97.80;;;;;;5029865;28;19975;-83
2022/09/04 06:43:13;;;;;;;;;;;16.20;97.80;;;;;;5012924;28;19987;-83
2022/09/04 06:45:47;;;;;;;;;;;16.30;98.30;;;;;;5013276;28;19921;-83
2022/09/04 06:48:31;;;;;;;;;;;16.30;97.90;;;;;;5031665;28;19921;-83
2022/09/04 06:51:15;;;;;;;;;;;16.30;98.10;;;;;;5033285;28;20336;-83
2022/09/04 06:53:44;;;;;;;;;;;16.40;98.20;;;;;;5016996;28;19921;-83
2022/09/04 06:56:12;;;;;;;;;;;16.40;98.40;;;;;;5016527;28;19937;-83
2022/09/04 06:58:44;;;;;;;;;;;16.50;98.40;;;;;;5033172;28;19928;-83
2022/09/04 07:01:27;;;;;;;;;;;16.50;98.30;;;;;;5032895;28;19984;-83
2022/09/04 07:04:01;;;;;;;;;;;16.60;97.00;;;;;;5032934;28;19987;-83
2022/09/04 07:06:44;;;;;;;;;;;16.70;98.10;;;;;;5033325;28;19925;-83
2022/09/04 07:09:19;;;;;;;;;;;16.80;97.70;;;;;;5016827;28;20264;-83
2022/09/04 07:12:00;;;;;;;;;;;16.80;96.90;;;;;;5032470;28;20016;-83
2022/09/04 07:14:46;;;;;;;;;;;16.90;96.60;;;;;;5016135;28;20019;-83
2022/09/04 07:17:20;;;;;;;;;;;17.00;96.30;;;;;;5033088;28;19921;-83
2022/09/04 07:19:58;;;;;;;;;;;17.00;95.90;;;;;;5032635;28;19963;-83
2022/09/04 07:22:50;;;;;;;;;;;17.10;96.00;;;;;;5016052;28;19932;-82
2022/09/04 07:25:34;;;;;;;;;;;17.20;95.80;;;;;;5025162;28;19944;-83
2022/09/04 07:28:06;;;;;;;;;;;17.30;95.70;;;;;;5032634;28;20349;-83
2022/09/04 07:31:04;;;;;;;;;;;17.30;96.30;;;;;;5032753;28;19921;-83
2022/09/04 07:33:40;;;;;;;;;;;17.40;96.80;;;;;;4998283;28;19932;-83
2022/09/04 07:36:15;;;;;;;;;;;17.50;96.40;;;;;;5031135;28;19932;-83
2022/09/04 07:38:51;;;;;;;;;;;17.60;96.50;;;;;;4998541;28;20330;-83
2022/09/04 07:41:31;;;;;;;;;;;17.70;97.00;;;;;;5014340;28;19925;-83
2022/09/04 07:44:02;;;;;;;;;;;17.80;95.90;;;;;;5031266;28;19921;-83
2022/09/04 07:46:39;;;;;;;;;;;17.90;96.10;;;;;;5014639;28;19928;-83
2022/09/04 07:49:11;;;;;;;;;;;17.90;95.60;;;;;;5014309;28;19925;-83
2022/09/04 07:51:47;;;;;;;;;;;18.00;95.40;;;;;;5030339;28;19929;-83
2022/09/04 07:54:12;;;;;;;;;;;18.10;95.20;;;;;;5025198;28;20020;-83
2022/09/04 07:56:48;;;;;;;;;;;18.20;94.80;;;;;;5014182;28;19921;-84
2022/09/04 07:59:32;;;;;;;;;;;18.30;94.30;;;;;;5001474;28;19948;-84
2022/09/04 08:02:00;;;;;;;;;;;18.40;94.60;;;;;;5065292;28;19921;-84
2022/09/04 08:04:26;;;;;;;;;;;18.50;93.90;;;;;;5033901;28;19960;-84
2022/09/04 08:07:14;;;;;;;;;;;18.60;94.70;;;;;;5051047;28;19962;-84
2022/09/04 08:09:40;;;;;;;;;;;18.60;93.80;;;;;;5043227;28;20051;-84
2022/09/04 08:12:26;;;;;;;;;;;18.70;93.20;;;;;;5047354;28;20426;-84
2022/09/04 08:15:02;;;;;;;;;;;18.80;93.20;;;;;;5051728;28;19925;-83
2022/09/04 08:17:27;;;;;;;;;;;18.90;93.40;;;;;;5051706;28;19920;-83
2022/09/04 08:20:01;;;;;;;;;;;19.00;93.00;;;;;;5051550;28;20409;-84
2022/09/04 08:22:45;;;;;;;;;;;19.00;93.20;;;;;;5067971;28;19967;-84
2022/09/04 08:25:19;;;;;;;;;;;19.10;92.60;;;;;;5051261;28;19970;-84
2022/09/04 08:28:17;;;;;;;;;;;19.20;92.70;;;;;;5051683;28;19932;-83
2022/09/04 08:31:09;;;;;;;;;;;19.30;92.60;;;;;;4991785;28;19921;-84
2022/09/04 08:33:44;;;;;;;;;;;19.40;92.40;;;;;;5051364;28;19970;-84
2022/09/04 08:36:15;;;;;;;;;;;19.50;92.00;;;;;;5052597;28;20036;-84
2022/09/04 08:39:01;;;;;;;;;;;19.60;91.70;;;;;;5052505;28;19990;-84
2022/09/04 08:41:47;;;;;;;;;;;19.70;91.30;;;;;;5050877;28;20370;-84
2022/09/04 08:44:39;;;;;;;;;;;19.70;91.20;;;;;;5051206;28;19983;-84
2022/09/04 08:47:25;;;;;;;;;;;19.80;91.00;;;;;;5067287;28;19920;-84
2022/09/04 08:50:09;;;;;;;;;;;19.90;90.90;;;;;;5051050;28;20007;-84
2022/09/04 08:52:41;;;;;;;;;;;20.00;90.40;;;;;;5050724;28;19925;-84
2022/09/04 08:55:11;;;;;;;;;;;20.10;89.90;;;;;;5049926;28;20335;-84
2022/09/04 08:57:55;;;;;;;;;;;20.20;90.20;;;;;;5050994;28;19924;-84
2022/09/04 09:00:27;;;;;;;;;;;20.30;89.60;;;;;;5050670;28;19920;-84
2022/09/04 09:03:11;;;;;;;;;;;20.40;89.50;;;;;;5033850;28;20380;-84
2022/09/04 09:05:58;;;;;;;;;;;20.50;88.50;;;;;;5034393;28;19928;-84
2022/09/04 09:08:34;;;;;;;;;;;20.60;86.90;;;;;;5049018;28;19975;-84
2022/09/04 09:11:26;;;;;;;;;;;20.60;86.80;;;;;;5065976;28;19936;-84
2022/09/04 09:14:10;;;;;;;;;;;20.70;86.80;;;;;;5084524;28;19935;-84
2022/09/04 09:16:42;;;;;;;;;;;20.80;85.10;;;;;;5050115;28;19924;-84
2022/09/04 09:19:08;;;;;;;;;;;20.90;85.50;;;;;;5051040;28;20293;-84
2022/09/04 09:21:33;;;;;;;;;;;21.10;85.20;;;;;;5050600;28;20437;-84
2022/09/04 09:24:13;;;;;;;;;;;21.10;83.50;;;;;;5050422;28;19979;-84
2022/09/04 09:26:56;;;;;;;;;;;21.20;82.70;;;;;;5050999;28;19928;-84
2022/09/04 09:29:28;;;;;;;;;;;21.30;83.40;;;;;;5084091;28;20352;-84
2022/09/04 09:32:12;;;;;;;;;;;21.40;81.70;;;;;;5050189;28;20306;-84
2022/09/04 09:34:51;;;;;;;;;;;21.50;82.30;;;;;;5050395;28;19925;-84
2022/09/04 09:37:45;;;;;;;;;;;21.60;82.30;;;;;;5082845;28;19933;-84
2022/09/04 09:40:30;;;;;;;;;;;21.70;80.90;;;;;;5033444;28;19927;-84
2022/09/04 09:43:08;;;;;;;;;;;21.90;80.50;;;;;;5050405;28;20063;-84
2022/09/04 09:45:50;;;;;;;;;;;21.90;80.00;;;;;;5050119;28;19929;-84
2022/09/04 09:48:34;;;;;;;;;;;22.10;80.00;;;;;;5067939;28;20408;-84
2022/09/04 09:51:21;;;;;;;;;;;22.20;79.90;;;;;;5050247;28;19921;-84
2022/09/04 09:53:56;;;;;;;;;;;22.30;79.10;;;;;;5033661;28;20275;-84
2022/09/04 09:57:00;;;;;;;;;;;22.40;78.20;;;;;;5049632;28;19971;-84
2022/09/04 09:59:31;;;;;;;;;;;22.50;77.80;;;;;;5032777;28;20282;-84
2022/09/04 10:01:59;;;;;;;;;;;22.60;77.40;;;;;;5031844;28;19921;-84
2022/09/04 10:04:43;;;;;;;;;;;22.70;77.20;;;;;;5015597;28;19928;-84
2022/09/04 10:07:21;;;;;;;;;;;22.80;76.10;;;;;;5032639;28;20349;-84
2022/09/04 10:10:07;;;;;;;;;;;22.90;76.00;;;;;;5032325;28;19921;-84
2022/09/04 10:12:51;;;;;;;;;;;23.10;75.10;;;;;;5031731;28;19971;-84
2022/09/04 10:15:36;;;;;;;;;;;23.20;73.80;;;;;;5031653;28;19924;-84
2022/09/04 10:18:14;;;;;;;;;;;23.30;73.20;;;;;;5031906;28;19921;-84
2022/09/04 10:20:44;;;;;;;;;;;23.40;73.30;;;;;;5032046;28;19927;-84
2022/09/04 10:23:09;;;;;;;;;;;23.50;72.60;;;;;;5033892;28;20352;-84
2022/09/04 10:25:47;;;;;;;;;;;23.60;72.40;;;;;;5052549;28;20432;-84
2022/09/04 10:28:28;;;;;;;;;;;23.70;70.80;;;;;;5036079;28;20414;-84
2022/09/04 10:30:54;;;;;;;;;;;23.80;69.20;;;;;;5033403;28;20007;-84
2022/09/04 10:33:28;;;;;;;;;;;23.90;70.30;;;;;;5050087;28;20392;-84
2022/09/04 10:36:03;;;;;;;;;;;23.90;68.80;;;;;;5033659;28;19929;-84
2022/09/04 10:41:37;;;;;;;;;;;24.10;67.50;;;;;;5049962;28;20395;-84
2022/09/04 10:44:21;;;;;;;;;;;24.20;67.80;;;;;;5050319;28;19921;-84
2022/09/04 10:47:06;;;;;;;;;;;24.30;67.90;;;;;;5016999;28;20401;-85
2022/09/04 10:49:50;;;;;;;;;;;24.40;69.00;;;;;;5050192;28;19921;-84
2022/09/04 10:52:16;;;;;;;;;;;24.60;67.30;;;;;;5016606;28;19925;-84
2022/09/04 10:54:53;;;;;;;;;;;24.70;67.10;;;;;;5049742;28;20027;-84
2022/09/04 10:57:37;;;;;;;;;;;24.80;66.40;;;;;;5033211;28;19928;-84
2022/09/04 11:00:04;;;;;;;;;;;24.90;66.60;;;;;;5016984;28;20008;-84
2022/09/04 11:03:02;;;;;;;;;;;25.00;65.80;;;;;;5049222;28;19921;-84
2022/09/04 11:05:40;;;;;;;;;;;25.10;66.10;;;;;;5016726;28;20383;-84
2022/09/04 11:08:12;;;;;;;;;;;25.20;65.40;;;;;;5033047;28;19921;-85
2022/09/04 11:10:54;;;;;;;;;;;25.20;65.40;;;;;;5049775;28;19971;-85
2022/09/04 11:13:40;;;;;;;;;;;25.30;65.70;;;;;;5033188;28;20382;-84
2022/09/04 11:16:18;;;;;;;;;;;25.40;65.90;;;;;;5032749;28;19925;-85
2022/09/04 11:18:44;;;;;;;;;;;25.50;63.80;;;;;;5049650;28;19928;-85
2022/09/04 11:21:42;;;;;;;;;;;25.50;63.80;;;;;;5020006;28;19921;-85
2022/09/04 11:24:26;;;;;;;;;;;25.70;64.40;;;;;;5030083;28;20438;-85
2022/09/04 11:27:02;;;;;;;;;;;25.80;64.00;;;;;;5052843;28;19920;-85
2022/09/04 11:29:31;;;;;;;;;;;25.90;63.90;;;;;;5052798;28;19928;-85
2022/09/04 11:32:05;;;;;;;;;;;26.00;63.20;;;;;;5035509;28;19972;-85
2022/09/04 11:34:34;;;;;;;;;;;26.00;62.40;;;;;;5052022;28;19925;-85
2022/09/04 11:37:14;;;;;;;;;;;26.10;61.80;;;;;;5034603;28;19921;-85
2022/09/04 11:40:00;;;;;;;;;;;26.20;62.10;;;;;;5038675;28;19921;-85
2022/09/04 11:42:32;;;;;;;;;;;26.30;62.60;;;;;;5032266;28;20396;-85
2022/09/04 11:44:59;;;;;;;;;;;26.50;62.60;;;;;;5048580;28;19921;-85
2022/09/04 11:47:51;;;;;;;;;;;26.70;62.30;;;;;;5032427;28;20505;-85
2022/09/04 11:50:35;;;;;;;;;;;26.80;61.00;;;;;;5049020;28;20339;-85
2022/09/04 11:53:19;;;;;;;;;;;26.90;60.00;;;;;;5031806;28;20145;-85
2022/09/04 11:55:52;;;;;;;;;;;27.00;59.80;;;;;;5031707;28;20343;-85
2022/09/04 11:58:17;;;;;;;;;;;27.10;60.10;;;;;;5020519;28;19986;-85
2022/09/04 12:00:57;;;;;;;;;;;27.20;60.40;;;;;;5051731;28;20382;-85
2022/09/04 12:03:25;;;;;;;;;;;27.40;59.80;;;;;;5051935;28;20400;-85
2022/09/04 12:05:57;;;;;;;;;;;27.50;59.50;;;;;;5051960;28;19927;-85
2022/09/04 12:08:43;;;;;;;;;;;27.60;58.30;;;;;;5035096;28;19958;-85
2022/09/04 12:11:30;;;;;;;;;;;27.70;58.30;;;;;;5080783;28;19921;-85
2022/09/04 12:14:20;;;;;;;;;;;27.80;56.80;;;;;;5052086;28;19952;-85
2022/09/04 12:16:55;;;;;;;;;;;27.80;56.80;;;;;;5035384;28;20022;-85
2022/09/04 12:19:28;;;;;;;;;;;28.00;57.90;;;;;;5052231;28;19967;-85
2022/09/04 12:21:56;;;;;;;;;;;28.20;57.30;;;;;;5050911;28;20381;-85
2022/09/04 12:24:32;;;;;;;;;;;28.50;57.20;;;;;;5052957;28;20405;-85
2022/09/04 12:26:57;;;;;;;;;;;28.60;56.30;;;;;;5035189;28;19920;-85
2022/09/04 12:29:39;;;;;;;;;;;28.80;55.90;;;;;;5051308;28;20267;-85
2022/09/04 12:32:07;;;;;;;;;;;29.00;55.60;;;;;;5034769;28;19925;-85
2022/09/04 12:34:39;;;;;;;;;;;29.00;54.50;;;;;;5052423;28;19951;-85
2022/09/04 12:37:23;;;;;;;;;;;29.10;54.30;;;;;;5052953;28;19925;-85
2022/09/04 12:40:04;;;;;;;;;;;29.00;54.00;;;;;;5047812;28;19968;-85
2022/09/04 12:42:33;;;;;;;;;;;29.20;54.10;;;;;;5042986;28;19927;-85
2022/09/04 12:45:05;;;;;;;;;;;29.40;53.70;;;;;;5037991;28;19927;-85
2022/09/04 12:47:32;;;;;;;;;;;29.60;53.90;;;;;;5031413;28;19921;-85
2022/09/04 12:50:16;;;;;;;;;;;29.90;52.60;;;;;;5031213;28;19921;-85
2022/09/04 12:52:56;;;;;;;;;;;30.10;52.70;;;;;;5031955;28;19921;-85
2022/09/04 12:55:28;;;;;;;;;;;30.10;52.60;;;;;;5047588;28;19933;-85
2022/09/04 12:57:59;;;;;;;;;;;30.20;52.10;;;;;;5031161;28;19932;-85
2022/09/04 13:00:32;;;;;;;;;;;30.30;51.50;;;;;;5042027;28;20381;-85
2022/09/04 13:03:12;;;;;;;;;;;30.40;50.90;;;;;;5051111;28;19944;-85
2022/09/04 13:06:10;;;;;;;;;;;30.60;50.80;;;;;;5050845;28;19927;-85
2022/09/04 13:08:54;;;;;;;;;;;30.90;50.80;;;;;;4991247;28;19925;-86
2022/09/04 13:11:38;;;;;;;;;;;31.10;49.30;;;;;;5050906;28;19920;-85
2022/09/04 13:14:13;;;;;;;;;;;31.40;49.30;;;;;;5050319;28;20386;-86
2022/09/04 13:16:42;;;;;;;;;;;31.60;48.30;;;;;;5050793;28;20475;-86
2022/09/04 13:19:08;;;;;;;;;;;31.70;49.40;;;;;;5051062;28;20296;-85
2022/09/04 13:21:36;;;;;;;;;;;32.00;47.40;;;;;;5051425;28;19968;-86
2022/09/04 13:24:08;;;;;;;;;;;32.20;48.50;;;;;;5050610;28;20290;-85
2022/09/04 13:26:34;;;;;;;;;;;32.20;47.40;;;;;;5050202;28;19921;-85
2022/09/04 13:29:14;;;;;;;;;;;32.10;47.30;;;;;;5051544;28;19966;-85
2022/09/04 13:32:09;;;;;;;;;;;32.50;46.70;;;;;;5066534;28;19927;-85
2022/09/04 13:34:58;;;;;;;;;;;32.70;45.80;;;;;;5042174;28;19936;-85
2022/09/04 13:37:28;;;;;;;;;;;32.70;46.40;;;;;;5049801;28;20413;-86
2022/09/04 13:40:06;;;;;;;;;;;32.90;46.00;;;;;;5051865;28;20011;-85
2022/09/04 13:42:32;;;;;;;;;;;33.10;44.40;;;;;;5050099;28;19920;-85
2022/09/04 13:45:00;;;;;;;;;;;33.30;44.40;;;;;;5050162;28;19920;-86
2022/09/04 13:47:29;;;;;;;;;;;33.50;44.90;;;;;;5049793;28;19999;-86
2022/09/04 13:50:07;;;;;;;;;;;33.70;44.00;;;;;;5050273;28;19924;-86
2022/09/04 13:52:52;;;;;;;;;;;33.70;44.00;;;;;;5037888;28;19928;-86
2022/09/04 13:55:22;;;;;;;;;;;33.70;44.20;;;;;;5057436;28;19976;-85
2022/09/04 13:57:56;;;;;;;;;;;33.70;43.90;;;;;;5046242;28;20004;-85
2022/09/04 14:00:22;;;;;;;;;;;33.30;43.60;;;;;;5051650;28;19924;-86
2022/09/04 14:02:54;;;;;;;;;;;33.10;43.50;;;;;;5056606;28;19967;-85
2022/09/04 14:05:21;;;;;;;;;;;32.90;44.20;;;;;;5056136;28;19928;-85
2022/09/04 14:07:50;;;;;;;;;;;32.90;43.80;;;;;;5056741;28;19921;-85
2022/09/04 14:10:19;;;;;;;;;;;32.80;43.40;;;;;;5056685;28;19925;-85
2022/09/04 14:12:51;;;;;;;;;;;32.80;43.70;;;;;;5039783;28;20290;-85
2022/09/04 14:15:35;;;;;;;;;;;32.90;44.00;;;;;;5051111;28;19925;-86
2022/09/04 14:18:23;;;;;;;;;;;32.70;43.20;;;;;;5052058;28;20394;-85
2022/09/04 14:20:58;;;;;;;;;;;32.70;43.70;;;;;;5060106;28;19966;-86
2022/09/04 14:23:51;;;;;;;;;;;32.70;44.10;;;;;;5079174;28;19924;-85
2022/09/04 14:26:17;;;;;;;;;;;32.50;45.10;;;;;;5035097;28;19928;-85
2022/09/04 14:28:49;;;;;;;;;;;32.30;44.60;;;;;;5046632;28;19920;-85
2022/09/04 14:31:15;;;;;;;;;;;32.50;44.70;;;;;;5063635;28;19936;-86
2022/09/04 14:33:45;;;;;;;;;;;32.50;44.80;;;;;;5046609;28;19921;-85
2022/09/04 14:36:20;;;;;;;;;;;32.60;44.00;;;;;;5045326;28;19928;-85
2022/09/04 14:38:55;;;;;;;;;;;32.70;44.10;;;;;;5048469;28;19921;-85
2022/09/04 14:41:41;;;;;;;;;;;32.80;43.60;;;;;;5050395;28;20387;-86
2022/09/04 14:44:38;;;;;;;;;;;32.90;43.30;;;;;;5056173;28;19921;-85
2022/09/04 14:47:08;;;;;;;;;;;32.90;43.70;;;;;;5047855;28;19920;-86
2022/09/04 14:49:40;;;;;;;;;;;32.80;43.20;;;;;;5055956;28;20320;-86
2022/09/04 14:52:26;;;;;;;;;;;32.80;43.20;;;;;;5039504;28;19925;-85
2022/09/04 14:54:54;;;;;;;;;;;32.80;44.00;;;;;;5072814;28;19925;-86
2022/09/04 14:57:25;;;;;;;;;;;32.90;44.40;;;;;;5089787;28;19928;-86
2022/09/04 14:59:57;;;;;;;;;;;32.90;43.60;;;;;;5056466;28;20374;-86
2022/09/04 15:02:27;;;;;;;;;;;32.80;43.80;;;;;;5055771;28;19970;-85
2022/09/04 15:05:01;;;;;;;;;;;32.80;43.20;;;;;;5055957;28;20015;-86
2022/09/04 15:07:34;;;;;;;;;;;32.80;43.70;;;;;;5056567;28;19927;-86
2022/09/04 15:10:08;;;;;;;;;;;32.70;44.40;;;;;;5052600;28;19975;-86
2022/09/04 15:12:35;;;;;;;;;;;32.50;44.50;;;;;;5052556;28;19921;-86
2022/09/04 15:15:03;;;;;;;;;;;32.40;44.30;;;;;;5054355;28;19991;-86
2022/09/04 15:17:29;;;;;;;;;;;32.20;43.80;;;;;;5053081;28;19921;-86